Time;durP1;ratioP1;P1;durP2;ratioP2;P2;SDS_P1;SDS_P2;PMS_P1;PMS_P2;Temp;Humidity;BMP_temperature;BMP_pressure;BME280_temperature;BME280_humidity;BME280_pressure;Samples;Min_cycle;Max_cycle;Signal;HPM_P1;HPM_P2
2021/06/12 00:02:08;;;;;;;4.37;4.07;;;19.90;99.90;;;;;;4964163;28;20613;-62
2021/06/12 00:04:34;;;;;;;4.57;4.10;;;19.80;99.90;;;;;;4966719;28;20303;-64
2021/06/12 00:07:00;;;;;;;4.57;3.90;;;19.70;99.90;;;;;;4969948;28;20252;-64
2021/06/12 00:09:26;;;;;;;4.10;3.80;;;19.80;99.90;;;;;;4958471;28;20209;-63
2021/06/12 00:11:53;;;;;;;4.00;3.70;;;19.80;99.90;;;;;;4965846;28;20189;-64
2021/06/12 00:14:18;;;;;;;4.50;4.10;;;19.80;99.90;;;;;;4969361;28;20644;-64
2021/06/12 00:16:44;;;;;;;4.67;4.27;;;19.80;99.90;;;;;;4966245;28;22030;-64
2021/06/12 00:19:10;;;;;;;4.70;4.30;;;19.70;99.90;;;;;;4970380;28;20643;-63
2021/06/12 00:21:36;;;;;;;6.07;4.80;;;19.80;99.90;;;;;;4971538;28;20621;-64
2021/06/12 00:24:05;;;;;;;4.67;4.27;;;19.80;99.90;;;;;;4963691;28;20578;-63
2021/06/12 00:26:31;;;;;;;4.23;3.83;;;19.70;99.90;;;;;;4945635;28;21049;-64
2021/06/12 00:28:57;;;;;;;5.00;4.60;;;19.70;99.90;;;;;;4951467;28;20966;-64
2021/06/12 00:31:23;;;;;;;4.60;4.30;;;19.80;99.90;;;;;;4979103;28;20754;-64
2021/06/12 00:33:48;;;;;;;7.93;5.23;;;19.70;99.90;;;;;;4968113;28;20222;-64
2021/06/12 00:36:14;;;;;;;5.37;4.87;;;19.70;99.90;;;;;;4962490;28;20190;-64
2021/06/12 00:38:39;;;;;;;4.90;4.40;;;19.70;99.90;;;;;;4966077;28;21179;-63
2021/06/12 00:41:08;;;;;;;5.30;4.80;;;19.70;99.90;;;;;;4964243;28;20221;-64
2021/06/12 00:43:34;;;;;;;4.53;4.20;;;19.70;99.90;;;;;;4967857;28;20607;-64
2021/06/12 00:46:01;;;;;;;5.07;4.60;;;19.70;99.90;;;;;;4968351;28;20791;-64
2021/06/12 00:48:27;;;;;;;5.83;5.30;;;19.70;99.90;;;;;;4957890;28;20653;-62
2021/06/12 00:50:54;;;;;;;6.47;5.87;;;19.70;99.90;;;;;;4956817;28;20672;-64
2021/06/12 00:53:36;;;;;;;5.80;5.30;;;19.60;99.90;;;;;;4965259;28;21275;-64
2021/06/12 00:56:06;;;;;;;9.00;6.63;;;19.60;99.90;;;;;;4966288;28;20621;-64
2021/06/12 00:58:33;;;;;;;6.33;5.80;;;19.60;99.90;;;;;;4971954;28;20620;-64
2021/06/12 01:01:00;;;;;;;7.80;7.10;;;19.60;99.90;;;;;;4963309;28;21406;-64
2021/06/12 01:03:27;;;;;;;7.80;7.10;;;19.60;99.90;;;;;;4966242;28;20694;-63
2021/06/12 01:05:53;;;;;;;7.90;7.20;;;19.70;99.90;;;;;;4973330;28;20695;-64
2021/06/12 01:08:19;;;;;;;8.60;7.80;;;19.60;99.90;;;;;;4963520;28;20654;-63
2021/06/12 01:10:44;;;;;;;9.40;8.50;;;19.60;99.90;;;;;;4962080;28;21151;-64
2021/06/12 01:13:31;;;;;;;8.87;8.07;;;19.60;99.90;;;;;;4966035;28;20222;-63
2021/06/12 01:16:01;;;;;;;8.57;7.80;;;19.60;99.90;;;;;;4968311;28;20348;-63
2021/06/12 01:18:31;;;;;;;8.97;8.17;;;19.60;99.90;;;;;;4963971;28;23477;-64
2021/06/12 01:21:15;;;;;;;9.70;8.57;;;19.60;99.90;;;;;;4965134;28;20657;-64
2021/06/12 01:24:00;;;;;;;7.13;6.50;;;19.60;99.90;;;;;;4963926;28;20665;-64
2021/06/12 01:26:44;;;;;;;7.37;6.77;;;19.60;99.90;;;;;;4951953;28;21229;-63
2021/06/12 01:29:22;;;;;;;6.33;5.80;;;19.50;99.90;;;;;;4955104;28;20672;-64
2021/06/12 01:31:49;;;;;;;7.87;7.17;;;19.60;99.90;;;;;;4966583;28;20981;-64
2021/06/12 01:34:15;;;;;;;7.10;6.40;;;19.60;99.90;;;;;;4961904;28;20640;-64
2021/06/12 01:36:43;;;;;;;7.03;6.07;;;19.60;99.90;;;;;;4960822;28;20630;-64
2021/06/12 01:39:09;;;;;;;7.33;6.63;;;19.60;99.90;;;;;;4955192;28;20719;-64
2021/06/12 01:41:36;;;;;;;6.83;6.23;;;19.50;99.90;;;;;;4963910;28;21358;-63
2021/06/12 01:44:03;;;;;;;7.00;6.30;;;19.60;99.90;;;;;;4958760;28;21215;-63
2021/06/12 01:46:29;;;;;;;7.13;6.53;;;19.60;99.90;;;;;;4967406;28;20645;-64
2021/06/12 01:48:58;;;;;;;7.80;6.67;;;19.60;99.90;;;;;;4956036;28;20656;-64
2021/06/12 01:51:26;;;;;;;7.80;7.10;;;19.60;99.90;;;;;;4966286;28;20680;-62
2021/06/12 01:53:54;;;;;;;6.70;6.10;;;19.50;99.90;;;;;;4963448;28;20648;-63
2021/06/12 01:56:23;;;;;;;7.40;6.70;;;19.50;99.90;;;;;;4967915;28;20609;-63
2021/06/12 01:58:50;;;;;;;7.10;6.30;;;19.60;99.90;;;;;;4968785;28;20652;-64
2021/06/12 02:01:17;;;;;;;6.40;5.80;;;19.50;99.90;;;;;;4950221;28;20644;-64
2021/06/12 02:03:45;;;;;;;6.40;5.90;;;19.50;99.90;;;;;;4966784;28;20660;-63
2021/06/12 02:06:14;;;;;;;6.33;5.73;;;19.50;99.90;;;;;;4965837;28;20629;-63
2021/06/12 02:08:41;;;;;;;6.47;5.83;;;19.40;99.90;;;;;;4958612;28;20735;-62
2021/06/12 02:11:07;;;;;;;7.03;6.33;;;19.50;99.90;;;;;;4968203;28;20980;-64
2021/06/12 02:13:33;;;;;;;7.70;7.00;;;19.50;99.90;;;;;;4965724;28;20633;-64
2021/06/12 02:15:59;;;;;;;7.80;7.10;;;19.50;99.90;;;;;;4949445;28;20740;-64
2021/06/12 02:18:27;;;;;;;7.20;6.50;;;19.50;99.90;;;;;;4945796;28;20639;-63
2021/06/12 02:20:54;;;;;;;7.70;6.47;;;19.50;99.90;;;;;;4943000;28;20660;-64
2021/06/12 02:23:32;;;;;;;7.53;6.83;;;19.40;99.90;;;;;;5089438;27;20869;-62
2021/06/12 02:25:58;;;;;;;7.00;6.37;;;19.40;99.90;;;;;;5041159;28;20886;-62
2021/06/12 02:28:29;;;;;;;6.10;5.60;;;19.50;99.90;;;;;;5044973;28;20978;-61
2021/06/12 02:31:02;;;;;;;5.93;5.43;;;19.50;99.90;;;;;;5030637;28;20736;-63
2021/06/12 02:33:29;;;;;;;7.20;6.10;;;19.50;99.90;;;;;;5052085;28;21190;-62
2021/06/12 02:35:54;;;;;;;6.37;5.87;;;19.50;99.90;;;;;;5071953;28;21578;-62
2021/06/12 02:38:21;;;;;;;7.50;6.90;;;19.50;99.90;;;;;;5074618;28;21583;-62
2021/06/12 02:40:47;;;;;;;7.00;6.40;;;19.60;99.90;;;;;;5081980;28;20198;-62
2021/06/12 02:43:14;;;;;;;7.83;7.13;;;19.60;99.90;;;;;;5078258;27;20665;-63
2021/06/12 02:45:41;;;;;;;8.47;7.57;;;19.60;99.90;;;;;;5080257;28;20708;-63
2021/06/12 02:48:12;;;;;;;9.20;8.30;;;19.60;99.90;;;;;;5075902;28;21585;-62
2021/06/12 02:50:38;;;;;;;9.93;8.93;;;19.60;99.90;;;;;;5078719;28;20657;-62
2021/06/12 02:53:09;;;;;;;9.50;8.60;;;19.50;99.90;;;;;;5074730;27;20644;-63
2021/06/12 02:55:42;;;;;;;10.20;9.20;;;19.50;99.90;;;;;;5070662;28;20632;-63
2021/06/12 02:58:10;;;;;;;10.57;9.47;;;19.50;99.90;;;;;;5068061;28;20620;-62
2021/06/12 03:00:36;;;;;;;11.20;10.10;;;19.50;99.90;;;;;;5075957;28;20724;-64
2021/06/12 03:03:03;;;;;;;12.80;11.40;;;19.50;99.90;;;;;;5073944;27;21051;-64
2021/06/12 03:05:31;;;;;;;11.90;10.80;;;19.50;99.90;;;;;;5080287;28;20616;-66
2021/06/12 03:07:59;;;;;;;12.23;10.93;;;19.40;99.90;;;;;;5078967;28;20612;-63
2021/06/12 03:10:27;;;;;;;12.63;11.43;;;19.30;99.90;;;;;;5082330;28;20676;-62
2021/06/12 03:12:55;;;;;;;12.57;11.37;;;19.40;99.90;;;;;;5078687;27;20680;-62
2021/06/12 03:15:22;;;;;;;12.37;10.77;;;19.30;99.90;;;;;;5083857;28;20703;-62
2021/06/12 03:17:50;;;;;;;12.33;10.90;;;19.30;99.90;;;;;;5073649;28;20678;-64
2021/06/12 03:20:18;;;;;;;12.40;11.10;;;19.30;99.90;;;;;;5078266;28;22707;-63
2021/06/12 03:22:46;;;;;;;12.70;11.37;;;19.40;99.90;;;;;;5073179;27;20651;-63
2021/06/12 03:25:14;;;;;;;13.77;12.10;;;19.30;99.90;;;;;;5077820;28;20616;-63
2021/06/12 03:27:41;;;;;;;10.97;9.87;;;19.40;99.90;;;;;;5082014;28;20634;-62
2021/06/12 03:30:10;;;;;;;11.70;10.50;;;19.40;99.90;;;;;;5087150;28;20645;-63
2021/06/12 03:32:37;;;;;;;12.30;11.10;;;19.30;99.90;;;;;;5074095;28;20609;-63
2021/06/12 03:35:03;;;;;;;13.03;10.70;;;19.40;99.90;;;;;;5062275;28;22201;-62
2021/06/12 03:37:31;;;;;;;12.40;11.20;;;19.40;99.90;;;;;;5056210;28;20629;-63
2021/06/12 03:39:57;;;;;;;11.40;10.20;;;19.40;99.90;;;;;;5049133;28;20656;-62
2021/06/12 03:42:23;;;;;;;11.67;10.57;;;19.30;99.90;;;;;;5063718;28;20636;-64
2021/06/12 03:44:49;;;;;;;11.43;10.27;;;19.20;99.90;;;;;;5061700;28;20570;-63
2021/06/12 03:47:15;;;;;;;12.33;10.23;;;19.20;99.90;;;;;;5068036;28;20609;-64
2021/06/12 03:49:42;;;;;;;11.73;10.53;;;19.30;99.90;;;;;;5058782;28;20656;-63
2021/06/12 03:52:08;;;;;;;10.27;9.33;;;19.20;99.90;;;;;;5058885;28;20621;-63
2021/06/12 03:54:36;;;;;;;11.73;10.47;;;19.30;99.90;;;;;;5061613;27;21053;-62
2021/06/12 03:57:03;;;;;;;10.47;9.47;;;19.30;99.90;;;;;;5066307;28;22707;-63
2021/06/12 03:59:28;;;;;;;10.60;9.10;;;19.30;99.90;;;;;;5064212;28;21166;-63
2021/06/12 04:01:59;;;;;;;10.23;9.23;;;19.30;99.90;;;;;;5067354;28;20641;-64
2021/06/12 04:04:28;;;;;;;10.67;9.57;;;19.30;99.90;;;;;;5058408;28;20751;-62
2021/06/12 04:06:54;;;;;;;11.00;9.97;;;19.30;99.90;;;;;;5058398;28;20726;-62
2021/06/12 04:09:19;;;;;;;10.70;9.70;;;19.30;99.90;;;;;;5063558;28;20616;-63
2021/06/12 04:11:45;;;;;;;9.93;8.97;;;19.30;99.90;;;;;;5065211;28;21029;-63
2021/06/12 04:14:10;;;;;;;11.30;10.20;;;19.30;99.90;;;;;;5057731;28;20249;-63
2021/06/12 04:16:37;;;;;;;10.37;9.40;;;19.30;99.90;;;;;;5062174;28;20619;-63
2021/06/12 04:19:03;;;;;;;10.43;8.73;;;19.30;99.90;;;;;;5054991;28;20229;-63
2021/06/12 04:21:29;;;;;;;9.23;8.37;;;19.20;99.90;;;;;;5064703;28;20664;-63
2021/06/12 04:23:56;;;;;;;8.60;7.80;;;19.20;99.90;;;;;;5064300;28;20214;-63
2021/06/12 04:26:22;;;;;;;9.37;8.50;;;19.30;99.90;;;;;;5059375;28;20179;-63
2021/06/12 04:28:47;;;;;;;8.60;7.77;;;19.30;99.90;;;;;;5059549;28;20651;-63
2021/06/12 04:31:13;;;;;;;8.80;7.87;;;19.30;99.90;;;;;;5055863;28;20873;-63
2021/06/12 04:33:39;;;;;;;10.50;8.10;;;19.30;99.90;;;;;;5055760;28;21176;-62
2021/06/12 04:36:05;;;;;;;7.87;7.00;;;19.20;99.90;;;;;;5064930;28;20248;-63
2021/06/12 04:38:30;;;;;;;8.93;7.17;;;19.30;99.90;;;;;;5048882;28;20272;-62
2021/06/12 04:40:56;;;;;;;9.60;8.50;;;19.20;99.90;;;;;;5062316;28;20652;-63
2021/06/12 04:43:21;;;;;;;7.43;6.73;;;19.30;99.90;;;;;;5055930;28;20238;-63
2021/06/12 04:45:47;;;;;;;8.23;7.43;;;19.20;99.90;;;;;;5059125;28;21244;-62
2021/06/12 04:48:13;;;;;;;8.50;7.70;;;19.30;99.90;;;;;;5056506;28;22787;-62
2021/06/12 04:50:39;;;;;;;10.50;8.03;;;19.30;99.90;;;;;;5061019;28;20218;-63
2021/06/12 04:53:10;;;;;;;9.10;8.20;;;19.30;99.90;;;;;;5060430;28;20608;-62
2021/06/12 04:55:37;;;;;;;9.90;8.90;;;19.30;99.90;;;;;;5055801;28;20612;-63
2021/06/12 04:58:03;;;;;;;9.13;8.33;;;19.30;99.90;;;;;;5056373;28;20629;-63
2021/06/12 05:00:29;;;;;;;9.97;8.53;;;19.30;99.90;;;;;;5059626;28;20647;-64
2021/06/12 05:02:54;;;;;;;10.23;9.23;;;19.30;99.90;;;;;;5060418;28;21495;-63
2021/06/12 05:05:20;;;;;;;9.77;8.77;;;19.20;99.90;;;;;;5059585;28;20211;-62
2021/06/12 05:07:46;;;;;;;9.87;8.87;;;19.30;99.90;;;;;;5058869;28;20210;-62
2021/06/12 05:10:12;;;;;;;12.17;9.57;;;19.30;99.90;;;;;;5058468;28;20263;-63
2021/06/12 05:12:38;;;;;;;10.67;9.67;;;19.30;99.90;;;;;;5061988;28;20608;-62
2021/06/12 05:15:08;;;;;;;12.17;9.57;;;19.30;99.90;;;;;;5062546;28;20771;-63
2021/06/12 05:17:40;;;;;;;10.70;9.60;;;19.30;99.90;;;;;;5064452;28;20758;-63
2021/06/12 05:20:06;;;;;;;11.17;10.07;;;19.30;99.90;;;;;;5053478;28;23199;-63
2021/06/12 05:22:32;;;;;;;12.30;9.93;;;19.30;99.90;;;;;;5062014;28;20652;-63
2021/06/12 05:24:57;;;;;;;10.80;9.00;;;19.30;99.90;;;;;;5063169;28;20713;-63
2021/06/12 05:27:24;;;;;;;10.50;9.40;;;19.30;99.90;;;;;;5058979;28;20179;-63
2021/06/12 05:29:50;;;;;;;10.60;9.50;;;19.40;99.90;;;;;;5061818;28;20202;-63
2021/06/12 05:32:16;;;;;;;10.53;9.43;;;19.40;99.90;;;;;;5067702;28;20966;-62
2021/06/12 05:34:42;;;;;;;11.40;10.23;;;19.40;99.90;;;;;;5065842;28;20640;-61
2021/06/12 05:37:08;;;;;;;11.47;10.27;;;19.40;99.90;;;;;;5066098;28;20945;-63
2021/06/12 05:39:34;;;;;;;10.80;9.23;;;19.40;99.90;;;;;;5067812;28;20655;-62
2021/06/12 05:42:00;;;;;;;12.27;11.03;;;19.40;99.90;;;;;;5073993;28;20649;-62
2021/06/12 05:44:25;;;;;;;12.10;10.90;;;19.50;99.90;;;;;;5064436;28;20284;-63
2021/06/12 05:46:51;;;;;;;14.17;11.60;;;19.40;99.90;;;;;;5077498;28;20266;-62
2021/06/12 05:49:18;;;;;;;12.20;10.53;;;19.40;99.90;;;;;;5073589;28;20202;-63
2021/06/12 05:51:43;;;;;;;14.20;12.70;;;19.40;99.90;;;;;;5076249;28;20192;-62
2021/06/12 05:54:09;;;;;;;13.23;11.93;;;19.40;99.90;;;;;;5074142;28;20785;-63
2021/06/12 05:56:35;;;;;;;12.67;11.20;;;19.40;99.90;;;;;;5078899;28;20202;-63
2021/06/12 05:59:00;;;;;;;14.13;12.70;;;19.50;99.90;;;;;;5067097;28;20194;-64
2021/06/12 06:01:26;;;;;;;17.53;14.10;;;19.50;99.90;;;;;;5062814;28;20210;-63
2021/06/12 06:03:51;;;;;;;13.93;12.17;;;19.50;99.90;;;;;;5048382;27;20228;-62
2021/06/12 06:06:17;;;;;;;16.53;14.83;;;19.50;99.90;;;;;;5057784;28;20611;-63
2021/06/12 06:08:43;;;;;;;15.97;13.80;;;19.60;99.90;;;;;;5060652;28;20746;-62
2021/06/12 06:11:08;;;;;;;16.03;14.43;;;19.60;99.90;;;;;;5071684;28;20208;-64
2021/06/12 06:13:42;;;;;;;16.57;14.87;;;19.60;99.90;;;;;;5046377;28;20294;-63
2021/06/12 06:16:07;;;;;;;18.70;15.00;;;19.60;99.90;;;;;;5064347;28;20544;-64
2021/06/12 06:18:36;;;;;;;15.43;13.80;;;19.60;99.90;;;;;;5073880;28;20613;-63
2021/06/12 06:21:03;;;;;;;14.03;12.63;;;19.60;99.90;;;;;;5085304;28;20214;-63
2021/06/12 06:23:29;;;;;;;16.57;14.87;;;19.60;99.90;;;;;;5073529;28;20763;-64
2021/06/12 06:25:54;;;;;;;17.57;15.57;;;19.70;99.90;;;;;;5073558;28;21133;-64
2021/06/12 06:28:20;;;;;;;15.93;14.30;;;19.80;99.90;;;;;;5077939;28;20198;-63
2021/06/12 06:30:46;;;;;;;18.23;16.13;;;19.80;99.90;;;;;;5070657;28;20763;-64
2021/06/12 06:33:11;;;;;;;19.43;16.20;;;19.80;99.90;;;;;;5077219;28;20253;-64
2021/06/12 06:35:37;;;;;;;15.50;13.97;;;19.80;99.90;;;;;;5076649;28;20239;-64
2021/06/12 06:38:03;;;;;;;17.20;15.40;;;19.80;99.90;;;;;;5075692;28;20278;-63
2021/06/12 06:40:28;;;;;;;16.73;15.13;;;19.80;99.90;;;;;;5066516;28;20210;-63
2021/06/12 06:42:54;;;;;;;18.37;16.57;;;19.80;99.90;;;;;;5067758;28;20223;-64
2021/06/12 06:45:22;;;;;;;17.03;15.23;;;19.80;99.90;;;;;;5073086;28;20226;-64
2021/06/12 06:47:49;;;;;;;17.63;15.87;;;19.80;99.90;;;;;;5077520;28;20690;-64
2021/06/12 06:50:16;;;;;;;19.03;17.20;;;19.70;99.90;;;;;;5061835;28;20644;-62
2021/06/12 06:52:43;;;;;;;18.13;16.43;;;19.70;99.90;;;;;;5073703;28;20616;-64
2021/06/12 06:55:10;;;;;;;20.47;18.43;;;19.70;99.90;;;;;;5074205;28;20637;-65
2021/06/12 06:57:35;;;;;;;20.00;17.93;;;19.60;99.90;;;;;;5084731;28;20757;-64
2021/06/12 07:00:01;;;;;;;18.83;16.93;;;19.60;99.90;;;;;;5078086;28;20751;-64
2021/06/12 07:02:26;;;;;;;20.80;18.73;;;19.60;99.90;;;;;;5071278;28;20238;-63
2021/06/12 07:04:52;;;;;;;21.23;18.53;;;19.60;99.90;;;;;;5064187;28;20222;-64
2021/06/12 07:07:18;;;;;;;21.70;18.17;;;19.50;99.90;;;;;;5071263;28;20191;-63
2021/06/12 07:09:43;;;;;;;17.83;16.13;;;19.50;99.90;;;;;;5066743;28;20610;-63
2021/06/12 07:12:10;;;;;;;18.10;16.30;;;19.60;99.90;;;;;;5074009;28;20812;-64
2021/06/12 07:14:40;;;;;;;16.50;13.50;;;19.50;99.90;;;;;;5076971;28;20229;-63
2021/06/12 07:17:06;;;;;;;17.00;13.57;;;19.50;99.90;;;;;;5077147;28;20621;-64
2021/06/12 07:19:31;;;;;;;19.57;13.30;;;19.50;99.90;;;;;;5074104;28;20663;-64
2021/06/12 07:21:57;;;;;;;15.03;13.37;;;19.40;99.90;;;;;;5076806;28;20282;-64
2021/06/12 07:24:23;;;;;;;16.87;14.73;;;19.30;99.90;;;;;;5069478;28;20234;-64
2021/06/12 07:26:49;;;;;;;13.80;12.40;;;19.30;99.90;;;;;;5065978;28;20746;-63
2021/06/12 07:29:14;;;;;;;14.87;13.30;;;19.30;99.90;;;;;;5070763;28;20629;-63
2021/06/12 07:31:41;;;;;;;13.47;12.07;;;19.20;99.90;;;;;;5064837;28;20731;-62
2021/06/12 07:34:09;;;;;;;15.97;13.77;;;19.20;99.90;;;;;;5072706;28;20219;-64
2021/06/12 07:36:34;;;;;;;16.73;14.90;;;19.20;99.90;;;;;;5078890;28;21013;-62
2021/06/12 07:39:00;;;;;;;16.70;15.00;;;19.10;99.90;;;;;;5135271;22;20776;-64
2021/06/12 07:41:27;;;;;;;16.13;14.53;;;19.10;99.90;;;;;;5046134;28;20227;-64
2021/06/12 07:43:54;;;;;;;14.67;13.27;;;19.10;99.90;;;;;;5048013;28;20220;-63
2021/06/12 07:46:20;;;;;;;16.53;14.83;;;19.10;99.90;;;;;;5052609;28;20652;-63
2021/06/12 07:48:46;;;;;;;13.97;12.57;;;19.10;99.90;;;;;;5054093;28;20622;-63
2021/06/12 07:51:11;;;;;;;15.47;14.07;;;19.10;99.90;;;;;;5046561;28;21231;-64
2021/06/12 07:53:37;;;;;;;13.47;12.13;;;19.10;99.90;;;;;;5057677;28;20219;-65
2021/06/12 07:56:03;;;;;;;12.80;11.50;;;19.20;99.90;;;;;;5056713;28;20214;-65
2021/06/12 07:58:28;;;;;;;11.20;10.20;;;19.20;99.90;;;;;;5047055;28;20278;-65
2021/06/12 08:00:54;;;;;;;11.90;10.70;;;19.30;99.90;;;;;;5053857;28;20223;-66
2021/06/12 08:03:19;;;;;;;11.07;9.87;;;19.20;99.90;;;;;;5035050;28;20610;-65
2021/06/12 08:05:45;;;;;;;12.67;11.20;;;19.20;99.90;;;;;;5055944;28;20196;-66
2021/06/12 08:08:11;;;;;;;11.40;10.30;;;19.20;99.90;;;;;;5045058;28;20199;-64
2021/06/12 08:10:36;;;;;;;11.50;10.40;;;19.20;99.90;;;;;;5042595;28;20343;-63
2021/06/12 08:13:02;;;;;;;11.10;10.10;;;19.30;99.90;;;;;;5033471;28;21587;-63
2021/06/12 08:15:28;;;;;;;11.93;10.83;;;19.20;99.90;;;;;;5050130;28;20199;-64
2021/06/12 08:17:53;;;;;;;11.03;10.13;;;19.10;99.90;;;;;;5066796;28;20191;-64
2021/06/12 08:20:19;;;;;;;11.63;10.53;;;19.10;99.90;;;;;;5060800;28;20215;-64
2021/06/12 08:22:45;;;;;;;12.10;10.90;;;19.10;99.90;;;;;;5053455;28;20229;-64
2021/06/12 08:25:11;;;;;;;12.83;11.57;;;19.10;99.90;;;;;;5053189;28;20617;-64
2021/06/12 08:27:37;;;;;;;11.63;10.47;;;19.20;99.90;;;;;;5055877;28;20191;-64
2021/06/12 08:30:05;;;;;;;13.23;11.83;;;19.30;99.90;;;;;;5055149;28;20670;-64
2021/06/12 08:32:31;;;;;;;12.10;11.10;;;19.30;99.90;;;;;;5058558;28;20751;-63
2021/06/12 08:34:56;;;;;;;12.53;11.30;;;19.40;99.90;;;;;;5055843;28;20720;-63
2021/06/12 08:37:22;;;;;;;11.90;10.70;;;19.40;99.90;;;;;;5043611;28;20912;-66
2021/06/12 08:39:48;;;;;;;10.70;9.70;;;19.50;99.90;;;;;;5053256;28;20872;-63
2021/06/12 08:42:16;;;;;;;11.20;10.10;;;19.60;99.90;;;;;;5048318;28;20218;-63
2021/06/12 08:44:44;;;;;;;11.73;10.60;;;19.70;99.90;;;;;;5065126;28;20649;-67
2021/06/12 08:47:11;;;;;;;9.43;8.63;;;19.70;99.90;;;;;;5069293;28;20614;-64
2021/06/12 08:49:38;;;;;;;8.70;7.77;;;19.80;99.90;;;;;;5059299;28;20702;-64
2021/06/12 08:52:04;;;;;;;7.97;7.23;;;19.80;99.90;;;;;;5020636;28;20625;-64
2021/06/12 08:54:29;;;;;;;7.50;6.67;;;19.90;99.90;;;;;;5048335;28;20645;-63
2021/06/12 08:56:55;;;;;;;7.83;6.80;;;19.90;99.90;;;;;;5045493;28;20191;-64
2021/06/12 08:59:22;;;;;;;6.90;6.37;;;19.90;99.90;;;;;;5050178;28;20271;-64
2021/06/12 09:01:48;;;;;;;7.53;6.83;;;20.00;99.90;;;;;;5050082;28;20207;-65
2021/06/12 09:04:27;;;;;;;7.90;7.10;;;20.00;99.90;;;;;;5042847;28;20710;-65
2021/06/12 09:07:23;;;;;;;9.87;7.37;;;19.90;99.90;;;;;;5040192;28;20998;-66
2021/06/12 09:09:57;;;;;;;7.50;6.77;;;19.90;99.90;;;;;;5046671;28;20641;-65
2021/06/12 09:12:47;;;;;;;6.80;6.10;;;20.00;99.90;;;;;;5040885;28;20629;-65
2021/06/12 09:15:15;;;;;;;7.63;5.57;;;20.00;99.90;;;;;;5049669;28;20748;-65
2021/06/12 09:17:49;;;;;;;7.17;6.50;;;20.00;99.90;;;;;;5059343;28;21171;-66
2021/06/12 09:20:28;;;;;;;7.43;6.70;;;20.00;99.90;;;;;;5050390;28;20735;-64
2021/06/12 09:23:39;;;;;;;6.83;6.23;;;20.10;99.90;;;;;;5051704;28;20759;-68
2021/06/12 09:26:08;;;;;;;6.93;6.23;;;20.20;99.90;;;;;;5003090;28;20624;-64
2021/06/12 09:28:48;;;;;;;7.63;6.50;;;20.20;99.90;;;;;;5044207;28;20621;-64
2021/06/12 09:31:25;;;;;;;7.50;6.20;;;20.30;99.90;;;;;;5035436;28;20660;-65
2021/06/12 09:33:55;;;;;;;6.30;5.70;;;20.30;99.90;;;;;;5053312;27;20756;-65
2021/06/12 09:36:42;;;;;;;6.17;5.13;;;20.40;99.90;;;;;;5051151;28;20591;-65
2021/06/12 09:39:14;;;;;;;6.77;6.07;;;20.40;99.90;;;;;;5067832;28;22473;-64
2021/06/12 09:41:46;;;;;;;6.30;4.70;;;20.40;99.90;;;;;;5057187;28;21015;-64
2021/06/12 09:44:27;;;;;;;5.97;4.07;;;20.50;99.90;;;;;;5051087;28;20710;-64
2021/06/12 09:46:53;;;;;;;4.37;3.50;;;20.50;99.90;;;;;;5055792;28;20610;-65
2021/06/12 09:49:39;;;;;;;7.00;3.73;;;20.60;99.90;;;;;;5039603;28;20708;-66
2021/06/12 09:52:08;;;;;;;4.30;3.90;;;20.60;99.90;;;;;;5054114;28;20218;-66
2021/06/12 09:54:43;;;;;;;5.10;2.90;;;20.60;99.90;;;;;;5050616;28;20741;-68
2021/06/12 09:57:11;;;;;;;3.40;3.10;;;20.70;99.90;;;;;;5059390;28;20700;-67
2021/06/12 09:59:58;;;;;;;4.50;3.23;;;20.70;99.90;;;;;;5043563;28;20651;-67
2021/06/12 10:02:41;;;;;;;4.13;3.20;;;20.70;99.90;;;;;;5043530;28;20780;-66
2021/06/12 10:05:11;;;;;;;4.40;3.37;;;20.60;99.90;;;;;;5048389;28;20648;-68
2021/06/12 10:07:37;;;;;;;4.57;3.30;;;20.50;99.90;;;;;;5083480;28;20625;-66
2021/06/12 10:10:06;;;;;;;5.40;3.43;;;20.50;99.90;;;;;;5062574;28;21737;-66
2021/06/12 10:12:33;;;;;;;4.90;3.47;;;20.50;99.90;;;;;;5044068;28;20195;-66
2021/06/12 10:15:03;;;;;;;4.90;3.37;;;20.40;99.90;;;;;;5045678;28;20641;-67
2021/06/12 10:17:32;;;;;;;3.27;2.97;;;20.30;99.90;;;;;;5049595;28;20667;-67
2021/06/12 10:19:58;;;;;;;3.50;2.80;;;20.40;99.90;;;;;;5048502;28;20659;-66
2021/06/12 10:22:24;;;;;;;3.80;2.80;;;20.40;99.90;;;;;;5050304;28;20668;-66
2021/06/12 10:24:50;;;;;;;3.13;2.63;;;20.30;99.90;;;;;;5045897;28;20633;-67
2021/06/12 10:27:17;;;;;;;3.97;2.60;;;20.40;99.90;;;;;;5054445;28;20183;-67
2021/06/12 10:29:44;;;;;;;4.13;2.70;;;20.40;99.90;;;;;;5060109;28;20645;-68
2021/06/12 10:32:12;;;;;;;6.00;3.07;;;20.40;99.90;;;;;;5075332;28;20679;-67
2021/06/12 10:34:39;;;;;;;5.27;2.63;;;20.40;99.90;;;;;;5049129;28;20710;-67
2021/06/12 10:37:07;;;;;;;2.87;2.30;;;20.40;99.90;;;;;;5046837;28;20602;-68
2021/06/12 10:39:35;;;;;;;5.40;2.27;;;20.30;99.90;;;;;;5048737;28;20722;-68
2021/06/12 10:42:20;;;;;;;2.17;2.07;;;20.20;99.90;;;;;;5038722;28;21255;-69
2021/06/12 10:44:50;;;;;;;3.70;2.37;;;20.20;99.90;;;;;;5054189;28;20649;-69
2021/06/12 10:47:39;;;;;;;2.50;2.10;;;20.30;99.90;;;;;;5056295;28;20744;-69
2021/06/12 10:50:23;;;;;;;3.03;2.30;;;20.40;99.90;;;;;;5053561;28;21228;-68
2021/06/12 10:52:49;;;;;;;3.33;2.27;;;20.60;99.90;;;;;;5045971;27;20700;-68
2021/06/12 10:55:39;;;;;;;7.73;2.43;;;20.60;99.90;;;;;;5058582;28;21050;-68
2021/06/12 10:58:32;;;;;;;5.90;2.33;;;20.60;99.90;;;;;;5050415;28;20199;-68
2021/06/12 11:01:07;;;;;;;2.90;2.70;;;20.60;99.90;;;;;;5043458;28;21413;-68
2021/06/12 11:03:45;;;;;;;4.50;2.57;;;20.60;99.90;;;;;;5048906;28;20694;-69
2021/06/12 11:06:38;;;;;;;2.43;2.23;;;20.70;99.90;;;;;;5048839;28;20641;-69
2021/06/12 11:09:13;;;;;;;4.13;2.60;;;20.80;99.90;;;;;;5047087;28;20622;-70
2021/06/12 11:11:47;;;;;;;3.00;2.40;;;20.90;99.90;;;;;;5054097;28;20670;-70
2021/06/12 11:14:22;;;;;;;3.13;1.90;;;21.00;99.90;;;;;;5047764;28;20737;-71
2021/06/12 11:17:06;;;;;;;2.93;2.63;;;21.00;99.90;;;;;;5043285;28;20643;-69
2021/06/12 11:19:32;;;;;;;2.57;2.37;;;21.00;99.90;;;;;;5041933;28;20731;-68
2021/06/12 11:22:23;;;;;;;3.33;2.33;;;21.10;99.90;;;;;;5044043;28;20645;-68
2021/06/12 11:24:50;;;;;;;2.87;2.67;;;21.30;99.90;;;;;;5041589;28;20637;-69
2021/06/12 11:27:48;;;;;;;3.13;2.83;;;21.40;99.90;;;;;;5052132;28;20663;-69
2021/06/12 11:30:25;;;;;;;6.20;2.87;;;21.50;99.90;;;;;;5029435;28;20671;-68
2021/06/12 11:33:12;;;;;;;4.20;3.13;;;21.60;99.90;;;;;;5044037;28;20613;-69
2021/06/12 11:35:40;;;;;;;3.67;2.90;;;21.50;99.90;;;;;;5029066;28;20709;-68
2021/06/12 11:38:21;;;;;;;3.73;2.77;;;21.50;99.90;;;;;;5037194;28;20617;-67
2021/06/12 11:41:06;;;;;;;3.57;3.03;;;21.60;99.90;;;;;;5035282;28;20665;-66
2021/06/12 11:43:49;;;;;;;3.30;3.07;;;21.60;99.90;;;;;;5040018;28;20717;-67
2021/06/12 11:46:28;;;;;;;3.33;2.80;;;21.60;99.90;;;;;;5048201;28;21048;-66
2021/06/12 11:48:55;;;;;;;3.90;3.07;;;21.70;99.90;;;;;;5037030;28;20656;-68
2021/06/12 11:51:32;;;;;;;5.87;3.23;;;21.70;99.90;;;;;;5048928;28;20753;-66
2021/06/12 11:54:13;;;;;;;4.37;2.70;;;21.90;99.90;;;;;;5051665;28;21307;-65
2021/06/12 11:56:49;;;;;;;6.17;3.10;;;21.90;99.90;;;;;;5046267;28;21117;-67
2021/06/12 11:59:17;;;;;;;3.67;3.10;;;21.90;99.90;;;;;;5058178;28;20625;-65
2021/06/12 12:01:47;;;;;;;5.00;3.37;;;21.90;99.90;;;;;;5056032;28;20794;-64
2021/06/12 12:04:21;;;;;;;4.93;3.60;;;21.90;99.90;;;;;;5043095;28;20739;-66
2021/06/12 12:06:52;;;;;;;3.20;2.90;;;21.90;99.90;;;;;;5036557;28;20614;-66
2021/06/12 12:09:30;;;;;;;4.00;3.03;;;21.90;99.90;;;;;;5044436;28;20618;-64
2021/06/12 12:12:01;;;;;;;3.70;3.13;;;21.90;99.90;;;;;;5044134;28;20633;-70
2021/06/12 12:14:29;;;;;;;3.03;2.80;;;21.80;99.90;;;;;;5048981;28;20673;-66
2021/06/12 12:16:55;;;;;;;3.53;2.77;;;21.80;99.90;;;;;;5055959;28;20632;-66
2021/06/12 12:19:21;;;;;;;3.30;3.00;;;21.70;99.90;;;;;;5044994;28;20632;-65
2021/06/12 12:21:51;;;;;;;4.57;3.30;;;21.60;99.90;;;;;;5058291;28;20859;-67
2021/06/12 12:24:17;;;;;;;3.80;3.13;;;21.60;99.90;;;;;;5065874;28;20669;-66
2021/06/12 12:26:58;;;;;;;6.10;3.27;;;21.60;99.90;;;;;;5058266;28;20621;-67
2021/06/12 12:29:25;;;;;;;4.80;3.03;;;21.60;99.90;;;;;;5057940;28;20901;-67
2021/06/12 12:31:52;;;;;;;5.60;3.03;;;21.60;99.90;;;;;;5054002;28;21279;-66
2021/06/12 12:34:32;;;;;;;3.43;2.70;;;21.70;99.90;;;;;;5044101;28;20638;-65
2021/06/12 12:36:58;;;;;;;8.53;3.20;;;21.70;99.90;;;;;;5044151;28;20710;-64
2021/06/12 12:39:24;;;;;;;6.67;2.60;;;21.60;99.90;;;;;;5049143;28;21493;-65
2021/06/12 12:41:57;;;;;;;4.13;2.30;;;21.60;99.90;;;;;;5055478;28;21212;-64
2021/06/12 12:44:25;;;;;;;10.47;2.77;;;21.50;99.90;;;;;;5049040;28;20644;-65
2021/06/12 12:46:52;;;;;;;3.27;2.10;;;21.50;99.90;;;;;;5050929;28;21715;-68
2021/06/12 12:49:23;;;;;;;5.07;2.60;;;21.60;99.90;;;;;;5048807;28;20617;-67
2021/06/12 12:52:19;;;;;;;2.40;2.20;;;21.60;99.90;;;;;;5048117;28;20675;-68